Time;durP1;ratioP1;P1;durP2;ratioP2;P2;SDS_P1;SDS_P2;PMS_P1;PMS_P2;Temp;Humidity;BMP_temperature;BMP_pressure;BME280_temperature;BME280_humidity;BME280_pressure;Samples;Min_cycle;Max_cycle;Signal;HPM_P1;HPM_P2
2022/03/05 00:00:26;;;;;;;45.08;25.60;;;;;;;-0.53;100.00;90508.22;5033360;28;20147;-70
2022/03/05 00:02:51;;;;;;;46.63;25.88;;;;;;;-0.46;100.00;90511.41;5033213;28;20064;-70
2022/03/05 00:05:17;;;;;;;38.28;21.30;;;;;;;-0.41;100.00;90514.06;5033103;28;20429;-70
2022/03/05 00:07:43;;;;;;;37.63;21.17;;;;;;;-0.41;100.00;90503.59;5033236;28;20038;-70
2022/03/05 00:10:09;;;;;;;34.83;19.75;;;;;;;-0.30;100.00;90500.00;5033239;28;20037;-70
2022/03/05 00:12:35;;;;;;;36.13;19.70;;;;;;;-0.14;100.00;90493.81;5033097;28;20041;-69
2022/03/05 00:15:01;;;;;;;30.67;19.55;;;;;;;-0.08;100.00;90486.78;5033166;28;20037;-70
2022/03/05 00:17:27;;;;;;;30.15;17.85;;;;;;;0.04;100.00;90487.34;5033122;28;20140;-70
2022/03/05 00:19:54;;;;;;;30.25;17.60;;;;;;;0.07;100.00;90488.66;5033049;28;20578;-70
2022/03/05 00:22:20;;;;;;;39.47;20.70;;;;;;;-0.17;100.00;90478.63;5032777;28;20545;-70
2022/03/05 00:24:45;;;;;;;48.60;24.42;;;;;;;-0.38;100.00;90488.19;5032981;28;20037;-70
2022/03/05 00:27:11;;;;;;;48.55;25.95;;;;;;;-0.54;100.00;90483.94;5032934;28;20474;-70
2022/03/05 00:29:36;;;;;;;51.83;26.67;;;;;;;-0.59;100.00;90485.75;5032861;28;20048;-70
2022/03/05 00:32:03;;;;;;;48.00;26.75;;;;;;;-0.64;100.00;90479.41;5032796;28;20120;-70
2022/03/05 00:34:28;;;;;;;40.22;24.23;;;;;;;-0.74;100.00;90479.38;5032589;28;20044;-70
2022/03/05 00:36:54;;;;;;;48.03;24.35;;;;;;;-0.83;100.00;90482.69;5032709;28;20113;-69
2022/03/05 00:39:19;;;;;;;37.80;22.35;;;;;;;-0.72;100.00;90487.75;5032738;28;20522;-69
2022/03/05 00:41:45;;;;;;;39.28;22.58;;;;;;;-0.76;100.00;90481.47;5032605;28;20037;-70
2022/03/05 00:44:11;;;;;;;34.55;19.85;;;;;;;-0.72;100.00;90466.84;5032540;28;20511;-70
2022/03/05 00:46:36;;;;;;;31.90;18.08;;;;;;;-0.68;100.00;90480.97;5032830;28;20148;-70
2022/03/05 00:49:02;;;;;;;36.55;19.42;;;;;;;-0.69;100.00;90476.00;5032531;28;20044;-69
2022/03/05 00:51:27;;;;;;;33.40;19.70;;;;;;;-0.68;100.00;90472.34;5032461;28;20415;-69
2022/03/05 00:53:53;;;;;;;35.13;20.27;;;;;;;-0.77;100.00;90468.66;5032375;28;20042;-69
2022/03/05 00:56:18;;;;;;;34.00;19.20;;;;;;;-0.77;100.00;90473.88;5032340;28;20041;-69
2022/03/05 00:58:44;;;;;;;34.03;20.38;;;;;;;-0.87;100.00;90473.81;5032363;28;20045;-70
2022/03/05 01:01:09;;;;;;;36.33;18.98;;;;;;;-0.93;100.00;90476.38;5032197;28;20037;-70
2022/03/05 01:03:35;;;;;;;31.60;17.77;;;;;;;-1.00;100.00;90465.34;5032187;28;20037;-70
2022/03/05 01:06:00;;;;;;;34.63;18.98;;;;;;;-0.93;100.00;90471.16;5032045;28;20522;-68
2022/03/05 01:08:27;;;;;;;30.75;18.20;;;;;;;-0.94;100.00;90463.59;5141142;22;20142;-66
2022/03/05 01:10:52;;;;;;;26.95;16.73;;;;;;;-0.88;100.00;90467.00;4991719;28;20042;-66
2022/03/05 01:13:18;;;;;;;24.70;15.68;;;;;;;-0.87;100.00;90464.16;4992757;28;20036;-66
2022/03/05 01:15:43;;;;;;;28.02;15.98;;;;;;;-0.83;100.00;90464.41;4992614;28;20062;-66
2022/03/05 01:18:08;;;;;;;24.90;15.57;;;;;;;-0.92;100.00;90466.72;4992647;28;20484;-66
2022/03/05 01:20:34;;;;;;;25.55;14.25;;;;;;;-1.06;100.00;90462.97;4992587;28;20030;-68
2022/03/05 01:22:59;;;;;;;20.35;12.73;;;;;;;-1.00;100.00;90462.75;4992546;28;20475;-68
2022/03/05 01:25:25;;;;;;;23.02;14.35;;;;;;;-1.08;100.00;90465.84;4992544;28;20081;-68
2022/03/05 01:27:50;;;;;;;30.13;16.40;;;;;;;-1.16;100.00;90463.66;4992477;28;20152;-68
2022/03/05 01:30:16;;;;;;;39.13;19.25;;;;;;;-1.24;100.00;90461.53;4992456;28;20026;-68
2022/03/05 01:32:41;;;;;;;39.90;20.83;;;;;;;-1.25;100.00;90465.97;4992387;28;20160;-68
2022/03/05 01:35:07;;;;;;;38.03;19.67;;;;;;;-1.28;100.00;90465.66;4992388;28;20408;-68
2022/03/05 01:37:33;;;;;;;38.08;19.52;;;;;;;-1.32;100.00;90462.75;4992185;28;20034;-68
2022/03/05 01:39:58;;;;;;;37.03;20.48;;;;;;;-1.37;100.00;90454.91;4992332;28;20037;-68
2022/03/05 01:42:24;;;;;;;36.75;19.15;;;;;;;-1.34;100.00;90464.84;4992251;28;20041;-68
2022/03/05 01:44:50;;;;;;;32.05;17.50;;;;;;;-1.41;100.00;90468.69;4992223;28;20030;-68
2022/03/05 01:47:16;;;;;;;31.30;17.48;;;;;;;-1.45;100.00;90462.38;4992100;28;20069;-68
2022/03/05 01:49:42;;;;;;;37.33;17.67;;;;;;;-1.47;100.00;90469.69;4992127;28;20066;-68
2022/03/05 01:52:07;;;;;;;30.48;17.63;;;;;;;-1.52;100.00;90471.22;4992123;28;20041;-68
2022/03/05 01:54:33;;;;;;;30.23;16.80;;;;;;;-1.53;100.00;90466.25;4992070;28;20121;-68
2022/03/05 01:57:00;;;;;;;28.20;16.33;;;;;;;-1.56;100.00;90464.13;4991989;28;20038;-68
2022/03/05 01:59:26;;;;;;;31.23;15.95;;;;;;;-1.58;100.00;90458.34;4991967;28;20140;-68
2022/03/05 02:01:51;;;;;;;26.42;16.05;;;;;;;-1.59;100.00;90460.19;4991948;28;20105;-68
2022/03/05 02:04:17;;;;;;;34.08;17.33;;;;;;;-1.61;100.00;90462.25;4991873;28;20476;-68
2022/03/05 02:06:43;;;;;;;28.73;17.05;;;;;;;-1.63;100.00;90466.16;4994052;28;20041;-69
2022/03/05 02:09:09;;;;;;;32.42;17.92;;;;;;;-1.64;100.00;90460.13;5031211;28;20104;-68
2022/03/05 02:11:35;;;;;;;31.35;16.83;;;;;;;-1.59;100.00;90469.81;5031160;28;20492;-69
2022/03/05 02:14:00;;;;;;;32.00;17.40;;;;;;;-1.58;100.00;90464.38;5013406;28;20560;-69
2022/03/05 02:16:26;;;;;;;26.95;16.58;;;;;;;-1.48;100.00;90460.28;5031002;28;20088;-66
2022/03/05 02:18:57;;;;;;;31.17;17.00;;;;;;;-1.40;100.00;90465.06;5031013;28;20052;-66
2022/03/05 02:21:26;;;;;;;35.13;18.52;;;;;;;-1.37;100.00;90459.34;5030616;28;20033;-65
2022/03/05 02:23:53;;;;;;;35.38;18.15;;;;;;;-1.36;100.00;90458.31;5031018;28;20111;-68
2022/03/05 02:26:19;;;;;;;37.90;19.58;;;;;;;-1.39;100.00;90462.19;5030976;28;20495;-68
2022/03/05 02:28:44;;;;;;;37.67;20.23;;;;;;;-1.44;100.00;90449.09;5030811;28;20108;-69
2022/03/05 02:31:10;;;;;;;43.88;23.25;;;;;;;-1.52;100.00;90458.16;5030902;28;20352;-69
2022/03/05 02:33:36;;;;;;;46.15;23.25;;;;;;;-1.52;100.00;90447.75;5030888;28;20491;-69
2022/03/05 02:36:05;;;;;;;49.15;24.55;;;;;;;-1.38;100.00;90462.97;5013150;28;20037;-69
2022/03/05 02:38:31;;;;;;;48.70;21.85;;;;;;;-1.47;100.00;90460.03;5030750;28;20037;-69
2022/03/05 02:40:56;;;;;;;43.90;21.65;;;;;;;-1.47;100.00;90464.47;5030768;28;20391;-69
2022/03/05 02:43:22;;;;;;;38.22;18.75;;;;;;;-1.56;100.00;90457.09;5030863;28;20064;-69
2022/03/05 02:45:49;;;;;;;26.02;15.00;;;;;;;-1.62;100.00;90463.28;5030847;28;20029;-68
2022/03/05 02:48:16;;;;;;;24.10;13.48;;;;;;;-1.61;100.00;90457.03;5030684;28;20513;-69
2022/03/05 02:50:43;;;;;;;29.77;16.55;;;;;;;-1.54;100.00;90470.69;5030692;28;20487;-68
2022/03/05 02:53:09;;;;;;;29.80;15.27;;;;;;;-1.53;100.00;90463.63;5030753;28;20487;-68
2022/03/05 02:55:35;;;;;;;29.92;17.75;;;;;;;-1.62;100.00;90463.28;5030738;28;20030;-68
2022/03/05 02:58:02;;;;;;;32.53;17.63;;;;;;;-1.74;100.00;90462.63;5030638;28;20026;-68
2022/03/05 03:00:27;;;;;;;26.75;15.70;;;;;;;-1.78;100.00;90458.97;5030645;28;20037;-68
2022/03/05 03:02:53;;;;;;;30.15;16.27;;;;;;;-1.78;100.00;90464.19;5030479;28;20037;-69
2022/03/05 03:05:18;;;;;;;30.13;15.45;;;;;;;-1.76;100.00;90462.09;5030708;28;20112;-69
2022/03/05 03:07:45;;;;;;;30.10;15.65;;;;;;;-1.79;100.00;90454.78;5030304;28;20128;-69
2022/03/05 03:10:12;;;;;;;28.42;15.65;;;;;;;-1.74;100.00;90465.25;5030846;28;20451;-69
2022/03/05 03:12:39;;;;;;;30.02;16.33;;;;;;;-1.68;100.00;90472.09;5030562;28;20017;-69
2022/03/05 03:15:06;;;;;;;35.10;16.67;;;;;;;-1.67;100.00;90471.06;5030548;28;20064;-68
2022/03/05 03:17:47;;;;;;;30.15;17.17;;;;;;;-1.73;100.00;90477.28;5012703;28;20045;-69
2022/03/05 03:20:15;;;;;;;29.50;16.73;;;;;;;-1.70;100.00;90476.00;5030444;28;20029;-68
2022/03/05 03:22:41;;;;;;;32.33;16.23;;;;;;;-1.69;100.00;90473.13;5030426;28;20037;-68
2022/03/05 03:25:07;;;;;;;31.35;16.65;;;;;;;-1.82;100.00;90469.09;5030446;28;20030;-68
2022/03/05 03:27:32;;;;;;;28.83;16.30;;;;;;;-1.67;100.00;90468.47;5030303;28;20548;-68
2022/03/05 03:29:58;;;;;;;29.38;16.33;;;;;;;-1.68;100.00;90477.31;5030385;28;20160;-68
2022/03/05 03:32:23;;;;;;;29.38;16.80;;;;;;;-1.64;100.00;90475.00;5030328;28;20475;-69
2022/03/05 03:34:49;;;;;;;30.85;16.70;;;;;;;-1.53;100.00;90476.69;5033645;28;20021;-68
2022/03/05 03:37:14;;;;;;;24.58;14.77;;;;;;;-1.55;100.00;90474.31;5033776;28;20033;-68
2022/03/05 03:39:40;;;;;;;25.55;15.35;;;;;;;-1.61;100.00;90467.47;5033909;28;20026;-69
2022/03/05 03:42:05;;;;;;;24.52;13.50;;;;;;;-1.52;100.00;90471.22;5033797;28;20109;-68
2022/03/05 03:44:30;;;;;;;20.10;12.02;;;;;;;-1.44;100.00;90474.41;5033747;28;20487;-68
2022/03/05 03:46:57;;;;;;;21.08;12.05;;;;;;;-1.52;100.00;90473.81;5033667;28;20066;-68
2022/03/05 03:49:22;;;;;;;17.55;11.15;;;;;;;-1.61;100.00;90479.72;5033619;28;20407;-68
2022/03/05 03:51:48;;;;;;;25.05;12.65;;;;;;;-1.60;100.00;90476.84;5033581;28;20033;-68
2022/03/05 03:54:14;;;;;;;19.33;11.63;;;;;;;-1.54;100.00;90480.31;5033579;28;20029;-68
2022/03/05 03:56:40;;;;;;;22.23;12.18;;;;;;;-1.53;100.00;90466.25;5033418;28;20029;-68
2022/03/05 03:59:05;;;;;;;26.52;14.30;;;;;;;-1.58;100.00;90479.22;5033491;28;20034;-68
2022/03/05 04:01:31;;;;;;;29.85;16.27;;;;;;;-1.60;100.00;90476.06;5033326;28;20025;-68
2022/03/05 04:03:56;;;;;;;35.53;19.30;;;;;;;-1.63;100.00;90466.94;5033388;28;20029;-68
2022/03/05 04:06:21;;;;;;;33.67;19.75;;;;;;;-1.61;100.00;90485.72;5033187;28;20034;-69
2022/03/05 04:08:47;;;;;;;35.47;19.42;;;;;;;-1.59;100.00;90482.88;5033154;28;20041;-68
2022/03/05 04:11:19;;;;;;;35.88;18.02;;;;;;;-1.51;100.00;90480.59;5033499;28;20056;-68
2022/03/05 04:13:47;;;;;;;34.15;18.00;;;;;;;-1.53;100.00;90474.84;5033199;28;20407;-68
2022/03/05 04:16:13;;;;;;;30.38;16.85;;;;;;;-1.51;100.00;90490.25;5033327;28;20108;-69
2022/03/05 04:18:39;;;;;;;32.53;17.63;;;;;;;-1.57;100.00;90480.81;5033099;28;20060;-68
2022/03/05 04:21:07;;;;;;;32.00;17.92;;;;;;;-1.56;100.00;90471.97;5033061;28;20064;-68
2022/03/05 04:23:33;;;;;;;30.67;17.30;;;;;;;-1.68;100.00;90479.94;5033039;28;20479;-68
2022/03/05 04:25:59;;;;;;;36.45;18.92;;;;;;;-1.70;100.00;90479.38;5032996;28;20064;-68
2022/03/05 04:28:24;;;;;;;38.42;20.40;;;;;;;-1.62;100.00;90480.75;5033090;28;20033;-68
2022/03/05 04:30:50;;;;;;;34.35;20.55;;;;;;;-1.56;100.00;90488.41;5032856;28;20025;-66
2022/03/05 04:33:15;;;;;;;40.25;21.85;;;;;;;-1.55;100.00;90484.75;5032821;28;20041;-66
2022/03/05 04:35:41;;;;;;;38.55;21.42;;;;;;;-1.62;100.00;90478.16;5032809;28;20033;-66
2022/03/05 04:38:06;;;;;;;34.75;19.77;;;;;;;-1.60;100.00;90484.69;5032939;28;20033;-66
2022/03/05 04:40:32;;;;;;;38.60;21.10;;;;;;;-1.61;100.00;90475.28;5032718;28;20033;-66
2022/03/05 04:42:59;;;;;;;40.10;20.30;;;;;;;-1.59;100.00;90478.44;5032610;28;20812;-66
2022/03/05 04:45:26;;;;;;;32.95;17.77;;;;;;;-1.60;100.00;90471.66;5032376;28;20447;-66
2022/03/05 04:47:51;;;;;;;33.60;17.63;;;;;;;-1.52;100.00;90488.69;5032488;28;20034;-66
2022/03/05 04:50:17;;;;;;;33.15;16.60;;;;;;;-1.61;100.00;90483.13;5032539;28;20036;-66
2022/03/05 04:52:42;;;;;;;28.77;15.00;;;;;;;-1.58;100.00;90476.59;5032491;28;20029;-67
2022/03/05 04:55:08;;;;;;;29.50;15.20;;;;;;;-1.65;100.00;90476.81;5032464;28;20121;-67
2022/03/05 04:57:34;;;;;;;32.45;16.80;;;;;;;-1.61;100.00;90477.91;5032322;28;20116;-67
2022/03/05 04:59:59;;;;;;;44.88;22.80;;;;;;;-1.59;100.00;90493.28;5032357;28;20112;-67
2022/03/05 05:02:25;;;;;;;42.83;22.90;;;;;;;-1.48;100.00;90496.78;5032261;28;20037;-66
2022/03/05 05:04:50;;;;;;;42.22;21.70;;;;;;;-1.46;100.00;90492.13;5032224;28;20033;-67
2022/03/05 05:07:16;;;;;;;35.40;19.33;;;;;;;-1.31;100.00;90500.09;5031878;28;20427;-66
2022/03/05 05:09:42;;;;;;;36.72;20.50;;;;;;;-1.33;100.00;90491.72;5032168;28;20237;-66
2022/03/05 05:12:08;;;;;;;47.78;25.48;;;;;;;-1.31;100.00;90502.69;5032074;28;20407;-67
2022/03/05 05:14:34;;;;;;;57.42;27.42;;;;;;;-1.33;100.00;90497.72;5032045;28;20033;-67
2022/03/05 05:16:59;;;;;;;54.90;28.30;;;;;;;-1.29;100.00;90492.78;5032021;28;20034;-67
2022/03/05 05:19:24;;;;;;;46.90;25.98;;;;;;;-1.21;100.00;90502.78;5031988;28;20021;-67
2022/03/05 05:21:55;;;;;;;47.53;24.35;;;;;;;-1.19;100.00;90498.09;5031885;28;20052;-67
2022/03/05 05:24:20;;;;;;;48.33;27.10;;;;;;;-1.13;100.00;90507.53;5031845;28;20028;-67
2022/03/05 05:26:46;;;;;;;50.50;27.88;;;;;;;-1.01;100.00;90502.94;5031698;28;20030;-67
2022/03/05 05:29:11;;;;;;;55.13;32.17;;;;;;;-1.14;100.00;90503.34;5031789;28;20113;-67
2022/03/05 05:31:37;;;;;;;58.28;31.35;;;;;;;-1.19;100.00;90508.53;5031733;28;20091;-67
2022/03/05 05:34:02;;;;;;;71.45;35.00;;;;;;;-1.21;100.00;90503.56;5031671;28;20104;-67
2022/03/05 05:36:29;;;;;;;71.00;38.78;;;;;;;-1.19;100.00;90492.88;5031061;28;20501;-67
2022/03/05 05:38:55;;;;;;;77.38;40.75;;;;;;;-0.92;100.00;90511.91;5031375;28;20104;-67
2022/03/05 05:41:20;;;;;;;74.72;40.88;;;;;;;-0.71;100.00;90509.41;5031407;28;20112;-67
2022/03/05 05:43:46;;;;;;;83.53;43.97;;;;;;;-0.59;100.00;90511.84;5031417;28;20387;-67
2022/03/05 05:46:12;;;;;;;88.10;44.25;;;;;;;-0.61;100.00;90501.66;5031294;28;20025;-67
2022/03/05 05:48:37;;;;;;;91.55;46.55;;;;;;;-0.58;100.00;90508.19;5031280;28;20048;-67
2022/03/05 05:51:03;;;;;;;87.47;44.08;;;;;;;-0.61;100.00;90505.06;5031341;28;20036;-67
2022/03/05 05:53:29;;;;;;;85.22;41.45;;;;;;;-0.44;100.00;90504.91;5031324;28;20116;-67
2022/03/05 05:55:55;;;;;;;75.10;39.80;;;;;;;-0.26;100.00;90514.13;5030821;28;20108;-67
2022/03/05 05:58:21;;;;;;;77.30;40.97;;;;;;;0.05;100.00;90507.22;5031248;28;20026;-67
2022/03/05 06:00:47;;;;;;;65.88;35.88;;;;;;;0.29;100.00;90510.97;5031216;28;20025;-67
2022/03/05 06:03:13;;;;;;;64.57;34.58;;;;;;;0.72;100.00;90522.06;5031111;28;20121;-67
2022/03/05 06:05:38;;;;;;;61.17;30.10;;;;;;;0.89;100.00;90520.00;5031174;28;20108;-67
2022/03/05 06:08:04;;;;;;;52.33;28.33;;;;;;;0.79;100.00;90521.81;5030889;28;20486;-67
2022/03/05 06:10:29;;;;;;;46.13;26.60;;;;;;;0.48;100.00;90520.97;5030966;28;20041;-67
2022/03/05 06:12:55;;;;;;;42.67;22.65;;;;;;;0.57;100.00;90527.25;5031015;28;20487;-68
2022/03/05 06:15:20;;;;;;;38.75;20.90;;;;;;;0.59;100.00;90531.19;5031152;28;20034;-67
2022/03/05 06:17:46;;;;;;;30.30;18.23;;;;;;;0.68;100.00;90530.69;5030948;28;20152;-67
2022/03/05 06:20:12;;;;;;;31.25;18.23;;;;;;;1.11;100.00;90538.09;5031058;28;20029;-67
2022/03/05 06:22:37;;;;;;;31.92;18.52;;;;;;;1.18;100.00;90535.22;5030883;28;20029;-67
2022/03/05 06:25:04;;;;;;;32.40;19.83;;;;;;;1.26;100.00;90545.16;5030997;28;20033;-67
2022/03/05 06:27:29;;;;;;;37.30;20.15;;;;;;;1.42;100.00;90546.75;5030921;28;20029;-67
2022/03/05 06:29:55;;;;;;;38.63;21.58;;;;;;;1.83;100.00;90541.44;5030869;28;20449;-67
2022/03/05 06:32:20;;;;;;;35.85;19.55;;;;;;;1.44;99.41;90543.88;5030869;28;20048;-67
2022/03/05 06:34:46;;;;;;;32.50;19.05;;;;;;;1.29;100.00;90547.28;5030761;28;20029;-67
2022/03/05 06:37:12;;;;;;;35.22;20.73;;;;;;;1.44;100.00;90552.53;5030558;28;20029;-67
2022/03/05 06:39:37;;;;;;;28.55;17.30;;;;;;;1.95;98.42;90560.31;5026904;28;20030;-65
2022/03/05 06:42:03;;;;;;;23.08;13.23;;;;;;;2.34;94.09;90567.56;5019429;28;20026;-66
2022/03/05 06:44:28;;;;;;;25.88;15.63;;;;;;;2.30;91.69;90558.66;5028612;28;20041;-66
2022/03/05 06:46:54;;;;;;;33.85;19.33;;;;;;;2.08;92.34;90559.78;5029619;28;20481;-67
2022/03/05 06:49:19;;;;;;;37.70;20.90;;;;;;;2.08;90.92;90561.63;5016142;28;20117;-69
2022/03/05 06:51:45;;;;;;;45.92;26.83;;;;;;;2.45;92.21;90563.84;5024519;28;20021;-67
2022/03/05 06:54:10;;;;;;;63.00;36.47;;;;;;;2.75;89.86;90564.78;5030649;28;20029;-68
2022/03/05 06:56:36;;;;;;;63.78;36.08;;;;;;;2.86;86.23;90563.69;5024828;28;20060;-69
2022/03/05 06:59:01;;;;;;;57.45;34.47;;;;;;;3.17;83.62;90557.19;5026898;28;20087;-67
2022/03/05 07:01:27;;;;;;;69.55;39.80;;;;;;;3.66;82.64;90569.47;5030551;28;20038;-66
2022/03/05 07:03:52;;;;;;;65.63;39.03;;;;;;;3.92;80.05;90570.81;5030456;28;20029;-65
2022/03/05 07:06:18;;;;;;;66.13;36.47;;;;;;;3.41;81.75;90564.38;5007791;28;20072;-63
2022/03/05 07:08:43;;;;;;;66.80;39.90;;;;;;;2.98;84.34;90562.28;5013839;28;20132;-66
2022/03/05 07:11:09;;;;;;;109.20;62.25;;;;;;;2.68;87.04;90559.81;5014305;28;20083;-65
2022/03/05 07:13:34;;;;;;;160.73;79.88;;;;;;;2.86;90.11;90558.44;5014310;28;20021;-66
2022/03/05 07:16:00;;;;;;;140.00;76.18;;;;;;;3.13;86.72;90561.41;5014183;28;20418;-66
2022/03/05 07:18:25;;;;;;;118.43;66.63;;;;;;;3.55;85.15;90557.44;5013902;28;20029;-66
2022/03/05 07:20:51;;;;;;;83.00;48.47;;;;;;;3.13;87.96;90553.53;5014124;28;20459;-66
2022/03/05 07:23:16;;;;;;;94.35;53.42;;;;;;;2.74;88.51;90566.63;5014125;28;20022;-65
2022/03/05 07:25:44;;;;;;;79.70;46.22;;;;;;;2.64;85.39;90556.16;5014113;28;20041;-64
2022/03/05 07:28:11;;;;;;;100.93;53.42;;;;;;;2.66;85.97;90527.78;5013880;28;20026;-65
2022/03/05 07:30:37;;;;;;;79.10;41.67;;;;;;;3.03;84.38;90537.84;5013903;28;20052;-66
2022/03/05 07:33:04;;;;;;;67.63;34.90;;;;;;;4.29;79.92;90547.56;5013863;28;20554;-66
2022/03/05 07:35:30;;;;;;;74.35;45.28;;;;;;;4.58;76.33;90544.88;5013859;28;20034;-65
2022/03/05 07:37:55;;;;;;;151.57;73.68;;;;;;;4.60;74.14;90525.09;5013801;28;20040;-66
2022/03/05 07:40:21;;;;;;;101.88;47.63;;;;;;;5.71;70.18;90530.66;5013690;28;20030;-66
2022/03/05 07:42:46;;;;;;;67.97;39.78;;;;;;;5.43;69.86;90523.69;5013454;28;20376;-67
2022/03/05 07:45:11;;;;;;;64.68;34.67;;;;;;;5.65;68.36;90533.66;5013611;28;20129;-66
2022/03/05 07:47:38;;;;;;;106.65;59.45;;;;;;;5.32;71.32;90535.47;5013417;28;20423;-67
2022/03/05 07:50:04;;;;;;;38.65;22.65;;;;;;;6.11;67.68;90533.72;5013085;28;20571;-66
2022/03/05 07:52:30;;;;;;;63.13;36.72;;;;;;;6.64;66.29;90533.28;5013449;28;20030;-65
2022/03/05 07:54:55;;;;;;;39.67;24.98;;;;;;;6.03;68.16;90539.66;5016050;28;20048;-66
2022/03/05 07:57:21;;;;;;;38.72;23.55;;;;;;;5.63;68.62;90544.50;5031619;28;20029;-64
2022/03/05 07:59:46;;;;;;;252.90;148.68;;;;;;;5.76;72.73;90542.19;5032198;28;20396;-66
2022/03/05 08:02:15;;;;;;;133.43;74.30;;;;;;;5.94;69.95;90544.03;5032696;28;20239;-67
2022/03/05 08:04:41;;;;;;;33.50;19.70;;;;;;;5.30;70.23;90548.16;5032259;28;20107;-66
2022/03/05 08:07:07;;;;;;;26.65;17.10;;;;;;;4.89;70.22;90548.72;5032531;28;20073;-65
2022/03/05 08:09:36;;;;;;;24.27;15.73;;;;;;;5.07;70.71;90542.69;5032995;28;20041;-64
2022/03/05 08:12:03;;;;;;;24.50;16.08;;;;;;;4.78;71.04;90542.00;5032876;28;20026;-65
2022/03/05 08:14:28;;;;;;;26.58;16.70;;;;;;;4.45;72.47;90544.50;5032827;28;20037;-67
2022/03/05 08:16:54;;;;;;;23.42;13.43;;;;;;;4.26;71.31;90546.28;5032598;28;20026;-67
2022/03/05 08:19:19;;;;;;;25.27;15.77;;;;;;;4.70;72.06;90539.97;5031652;28;20104;-67
2022/03/05 08:21:45;;;;;;;36.00;21.27;;;;;;;4.57;71.73;90548.56;5032498;28;20029;-67
2022/03/05 08:25:01;;;;;;;35.13;20.20;;;;;;;4.74;73.66;90531.25;5032546;28;20079;-64
2022/03/05 08:27:27;;;;;;;32.95;20.30;;;;;;;4.80;73.38;90534.59;4977037;28;20048;-66
2022/03/05 08:29:52;;;;;;;31.33;20.85;;;;;;;4.88;73.26;90536.59;5012477;28;20104;-66
2022/03/05 08:32:18;;;;;;;38.50;23.48;;;;;;;4.66;74.03;90533.72;5015300;28;20136;-68
2022/03/05 08:34:43;;;;;;;30.98;21.75;;;;;;;3.77;76.90;90547.25;5031132;28;20033;-67
2022/03/05 08:37:09;;;;;;;38.28;22.83;;;;;;;3.72;78.93;90543.91;5031883;28;20029;-66
2022/03/05 08:39:34;;;;;;;54.10;30.00;;;;;;;3.86;80.43;90556.13;5031939;28;20081;-66
2022/03/05 08:42:00;;;;;;;47.80;28.30;;;;;;;3.62;79.62;90552.66;5031794;28;20029;-67
2022/03/05 08:44:25;;;;;;;55.97;31.67;;;;;;;3.82;79.78;90555.13;5032058;28;20552;-67
2022/03/05 08:46:50;;;;;;;44.65;26.85;;;;;;;3.52;80.05;90539.59;5031867;28;20037;-65
2022/03/05 08:49:16;;;;;;;41.10;24.80;;;;;;;3.73;81.30;90556.75;5024719;28;20076;-66
2022/03/05 08:51:43;;;;;;;52.65;31.55;;;;;;;4.03;78.89;90562.81;5019396;28;20052;-65
2022/03/05 08:54:08;;;;;;;53.65;30.17;;;;;;;4.07;76.75;90559.34;5015692;28;20044;-65
2022/03/05 08:56:33;;;;;;;75.93;39.15;;;;;;;4.22;75.90;90559.19;5012053;28;20030;-64
2022/03/05 08:58:59;;;;;;;42.00;24.60;;;;;;;4.98;74.49;90548.84;5012024;28;20033;-65
2022/03/05 09:01:24;;;;;;;32.60;18.55;;;;;;;5.20;71.10;90561.47;5011442;28;20735;-66
2022/03/05 09:03:50;;;;;;;26.10;15.43;;;;;;;4.63;70.94;90561.41;5028604;28;20021;-66
2022/03/05 09:06:15;;;;;;;27.52;17.52;;;;;;;4.12;73.27;90556.69;5031408;28;20033;-65
2022/03/05 09:08:41;;;;;;;28.98;15.73;;;;;;;3.34;76.40;90550.78;5031215;28;20450;-64
2022/03/05 09:11:07;;;;;;;23.98;15.77;;;;;;;3.49;77.70;90543.56;5031068;28;20029;-65
2022/03/05 09:13:32;;;;;;;30.88;17.02;;;;;;;4.06;76.05;90533.31;5031137;28;20040;-66
2022/03/05 09:15:58;;;;;;;33.05;22.50;;;;;;;4.55;76.24;90550.69;5031217;28;20108;-64
2022/03/05 09:18:23;;;;;;;32.65;21.30;;;;;;;4.61;77.83;90563.53;5030818;28;20025;-64
2022/03/05 09:20:49;;;;;;;28.67;17.65;;;;;;;3.64;77.43;90561.06;5030998;28;20029;-64
2022/03/05 09:23:15;;;;;;;30.02;18.92;;;;;;;3.66;81.36;90572.09;5031102;28;20030;-65
2022/03/05 09:25:41;;;;;;;33.60;20.88;;;;;;;4.21;82.06;90556.84;5031412;28;20028;-64
2022/03/05 09:28:07;;;;;;;30.58;17.75;;;;;;;4.10;80.18;90553.56;5048918;28;20033;-66
2022/03/05 09:30:32;;;;;;;25.42;17.17;;;;;;;3.82;80.66;90554.34;5050163;28;20417;-65
2022/03/05 09:32:58;;;;;;;37.55;22.65;;;;;;;3.78;84.50;90559.34;5050724;28;20059;-65
2022/03/05 09:35:23;;;;;;;37.72;23.58;;;;;;;4.31;83.86;90562.03;5051116;28;20029;-62
2022/03/05 09:37:49;;;;;;;28.05;19.23;;;;;;;4.56;80.93;90570.69;5050967;28;20036;-64
2022/03/05 09:40:14;;;;;;;43.70;24.33;;;;;;;4.47;82.66;90560.78;5050906;28;20076;-64
2022/03/05 09:42:44;;;;;;;50.22;28.52;;;;;;;4.62;83.79;90565.09;5050366;28;20068;-71
2022/03/05 09:45:12;;;;;;;41.58;24.95;;;;;;;5.12;79.99;90562.91;5050993;28;20021;-68
2022/03/05 09:47:39;;;;;;;52.80;29.10;;;;;;;5.27;79.63;90556.63;5050268;28;20363;-68
2022/03/05 09:50:06;;;;;;;47.45;28.30;;;;;;;5.32;80.12;90567.13;5050665;28;20029;-68
2022/03/05 09:52:31;;;;;;;34.38;19.80;;;;;;;5.35;77.95;90563.91;5050046;28;20059;-68
2022/03/05 09:54:57;;;;;;;31.88;20.50;;;;;;;4.51;81.29;90563.66;5050425;28;20029;-73
2022/03/05 09:57:22;;;;;;;44.42;26.80;;;;;;;4.43;84.11;90553.75;5032669;28;20028;-74
2022/03/05 09:59:48;;;;;;;39.88;25.10;;;;;;;4.61;84.71;90557.50;5050693;28;20487;-68
2022/03/05 10:02:13;;;;;;;36.92;22.52;;;;;;;4.99;84.49;90550.41;5034177;28;20036;-69
2022/03/05 10:04:39;;;;;;;40.97;24.27;;;;;;;5.02;81.67;90548.00;5030477;28;20055;-69
2022/03/05 10:07:16;;;;;;;72.45;42.50;;;;;;;5.06;81.90;90545.59;5030353;28;20054;-69
2022/03/05 10:09:44;;;;;;;68.38;44.85;;;;;;;4.88;85.08;90547.13;5030426;28;20113;-69
2022/03/05 10:12:33;;;;;;;58.97;32.67;;;;;;;4.80;83.52;90542.50;5030710;28;20088;-67
2022/03/05 10:15:13;;;;;;;37.97;25.30;;;;;;;4.43;86.08;90551.09;5030201;28;20039;-63
2022/03/05 10:17:56;;;;;;;41.83;26.15;;;;;;;4.58;87.17;90558.06;5029838;28;20033;-65
2022/03/05 10:20:25;;;;;;;54.03;30.83;;;;;;;4.25;89.00;90543.91;5030450;28;20029;-65
2022/03/05 10:23:05;;;;;;;59.20;32.38;;;;;;;3.97;93.20;90551.56;5030425;28;20087;-65
2022/03/05 10:25:37;;;;;;;46.72;27.88;;;;;;;3.97;92.06;90550.78;5030571;28;20030;-69
2022/03/05 10:28:11;;;;;;;35.22;22.75;;;;;;;3.66;92.87;90553.69;5030047;28;20033;-72
2022/03/05 10:30:42;;;;;;;46.67;26.30;;;;;;;3.47;97.00;90556.19;5030321;28;20029;-72
2022/03/05 10:33:22;;;;;;;33.85;21.85;;;;;;;3.47;97.32;90542.25;5029560;28;20189;-69
2022/03/05 10:35:47;;;;;;;35.08;22.90;;;;;;;4.11;95.16;90546.44;5018785;28;20507;-75
2022/03/05 10:38:12;;;;;;;37.35;22.15;;;;;;;4.19;92.89;90546.59;5020104;28;20021;-69
2022/03/05 10:40:38;;;;;;;34.03;23.40;;;;;;;4.57;90.10;90553.81;5023158;28;20105;-69
2022/03/05 10:43:06;;;;;;;37.75;24.40;;;;;;;4.71;89.15;90549.44;5032869;28;20026;-67
2022/03/05 10:45:50;;;;;;;39.83;25.85;;;;;;;4.84;85.94;90540.84;5034415;28;20421;-67
2022/03/05 10:48:30;;;;;;;33.53;20.25;;;;;;;5.08;84.99;90540.81;5023190;28;20469;-67
2022/03/05 10:51:10;;;;;;;31.45;18.25;;;;;;;5.14;80.09;90546.81;5020678;28;20037;-68
2022/03/05 10:53:44;;;;;;;27.80;14.48;;;;;;;4.04;83.89;90540.72;5020317;28;20127;-70
2022/03/05 10:56:32;;;;;;;24.85;16.92;;;;;;;3.90;88.57;90535.31;5022068;28;20042;-68
2022/03/05 10:59:09;;;;;;;27.77;18.95;;;;;;;4.17;91.15;90529.53;5024383;28;20823;-70
2022/03/05 11:01:39;;;;;;;32.63;20.20;;;;;;;4.47;90.54;90518.66;5025424;28;20028;-73
2022/03/05 11:04:06;;;;;;;27.80;19.70;;;;;;;4.61;91.24;90528.50;5034097;28;20543;-72
2022/03/05 11:06:36;;;;;;;31.73;20.83;;;;;;;4.32;88.61;90525.94;5033983;28;20487;-70
2022/03/05 11:09:02;;;;;;;28.00;19.67;;;;;;;4.44;90.17;90519.22;4979723;28;20045;-72
2022/03/05 11:11:29;;;;;;;32.65;18.90;;;;;;;4.07;93.54;90529.63;4983341;28;20540;-70
2022/03/05 11:13:55;;;;;;;31.85;20.52;;;;;;;3.78;98.32;90527.00;4982900;28;20429;-69